sensor_id;sensor_type;location;lat;lon;timestamp;pressure;altitude;pressure_sealevel;temperature;humidity
71107;BME280;58763;47.982;11.516;2023-07-30T00:02:18;93890.59;;;17.96;77.51
71107;BME280;58763;47.982;11.516;2023-07-30T00:04:45;93894.41;;;17.83;77.90
71107;BME280;58763;47.982;11.516;2023-07-30T00:07:11;93895.41;;;17.78;78.34
71107;BME280;58763;47.982;11.516;2023-07-30T00:09:37;93903.66;;;17.58;79.33
71107;BME280;58763;47.982;11.516;2023-07-30T00:12:05;93904.63;;;17.62;79.38
71107;BME280;58763;47.982;11.516;2023-07-30T00:14:31;93910.94;;;17.54;79.71
71107;BME280;58763;47.982;11.516;2023-07-30T00:16:57;93914.84;;;17.44;80.07
71107;BME280;58763;47.982;11.516;2023-07-30T00:19:22;93919.06;;;17.42;81.34
71107;BME280;58763;47.982;11.516;2023-07-30T00:21:48;93908.53;;;17.32;81.74
71107;BME280;58763;47.982;11.516;2023-07-30T00:24:13;93908.84;;;17.30;82.25
71107;BME280;58763;47.982;11.516;2023-07-30T00:26:39;93899.47;;;17.40;82.15
71107;BME280;58763;47.982;11.516;2023-07-30T00:29:06;93911.78;;;17.25;82.77
71107;BME280;58763;47.982;11.516;2023-07-30T00:31:32;93904.13;;;17.39;82.51
71107;BME280;58763;47.982;11.516;2023-07-30T00:33:57;93899.19;;;17.33;82.89
71107;BME280;58763;47.982;11.516;2023-07-30T00:36:23;93902.59;;;17.29;82.44
71107;BME280;58763;47.982;11.516;2023-07-30T00:38:48;93905.47;;;17.33;83.07
71107;BME280;58763;47.982;11.516;2023-07-30T00:41:14;93922.44;;;17.39;82.96
71107;BME280;58763;47.982;11.516;2023-07-30T00:43:40;93909.59;;;17.39;82.89
71107;BME280;58763;47.982;11.516;2023-07-30T00:46:05;93913.00;;;17.36;83.10
71107;BME280;58763;47.982;11.516;2023-07-30T00:48:31;93917.22;;;17.34;83.62
71107;BME280;58763;47.982;11.516;2023-07-30T00:50:57;93918.06;;;17.25;84.02
71107;BME280;58763;47.982;11.516;2023-07-30T00:53:24;93910.78;;;17.29;84.34
71107;BME280;58763;47.982;11.516;2023-07-30T00:55:51;93915.59;;;17.33;84.06
71107;BME280;58763;47.982;11.516;2023-07-30T00:58:18;93900.41;;;17.23;84.59
71107;BME280;58763;47.982;11.516;2023-07-30T01:00:46;93898.94;;;17.25;84.33
71107;BME280;58763;47.982;11.516;2023-07-30T01:03:11;93904.19;;;17.31;84.36
71107;BME280;58763;47.982;11.516;2023-07-30T01:05:37;93900.81;;;17.34;83.94
71107;BME280;58763;47.982;11.516;2023-07-30T01:08:03;93897.72;;;17.35;83.81
71107;BME280;58763;47.982;11.516;2023-07-30T01:10:30;93901.59;;;17.13;84.96
71107;BME280;58763;47.982;11.516;2023-07-30T01:13:00;93903.28;;;17.06;85.59
71107;BME280;58763;47.982;11.516;2023-07-30T01:15:28;93902.28;;;17.10;85.28
71107;BME280;58763;47.982;11.516;2023-07-30T01:17:53;93904.13;;;16.98;86.03
71107;BME280;58763;47.982;11.516;2023-07-30T01:20:21;93904.66;;;16.91;86.55
71107;BME280;58763;47.982;11.516;2023-07-30T01:22:46;93910.84;;;17.00;86.58
71107;BME280;58763;47.982;11.516;2023-07-30T01:25:13;93908.13;;;17.00;86.32
71107;BME280;58763;47.982;11.516;2023-07-30T01:27:44;93902.84;;;16.95;86.57
71107;BME280;58763;47.982;11.516;2023-07-30T01:30:22;93906.50;;;16.99;85.97
71107;BME280;58763;47.982;11.516;2023-07-30T01:32:51;93910.75;;;16.88;86.68
71107;BME280;58763;47.982;11.516;2023-07-30T01:35:20;93908.38;;;16.87;86.54
71107;BME280;58763;47.982;11.516;2023-07-30T01:37:47;93907.13;;;16.76;87.24
71107;BME280;58763;47.982;11.516;2023-07-30T01:40:13;93902.28;;;16.81;86.64
71107;BME280;58763;47.982;11.516;2023-07-30T01:42:39;93903.22;;;16.85;86.74
71107;BME280;58763;47.982;11.516;2023-07-30T01:45:06;93903.91;;;16.82;86.57
71107;BME280;58763;47.982;11.516;2023-07-30T01:47:32;93902.09;;;16.86;86.20
71107;BME280;58763;47.982;11.516;2023-07-30T01:49:57;93908.50;;;16.90;85.56
71107;BME280;58763;47.982;11.516;2023-07-30T01:52:23;93911.84;;;16.96;85.78
71107;BME280;58763;47.982;11.516;2023-07-30T01:54:48;93905.38;;;17.00;85.74
71107;BME280;58763;47.982;11.516;2023-07-30T01:57:14;93906.31;;;17.04;85.49
71107;BME280;58763;47.982;11.516;2023-07-30T01:59:41;93908.78;;;16.97;85.69
71107;BME280;58763;47.982;11.516;2023-07-30T02:02:07;93919.66;;;17.06;85.45
71107;BME280;58763;47.982;11.516;2023-07-30T02:04:33;93921.72;;;17.09;85.14
71107;BME280;58763;47.982;11.516;2023-07-30T02:06:59;93909.47;;;17.15;84.35
71107;BME280;58763;47.982;11.516;2023-07-30T02:09:24;93926.53;;;17.12;83.95
71107;BME280;58763;47.982;11.516;2023-07-30T02:11:50;93914.41;;;17.21;84.07
71107;BME280;58763;47.982;11.516;2023-07-30T02:14:18;93916.41;;;17.33;82.87
71107;BME280;58763;47.982;11.516;2023-07-30T02:16:44;93901.38;;;17.39;82.40
71107;BME280;58763;47.982;11.516;2023-07-30T02:19:09;93916.13;;;17.47;81.79
71107;BME280;58763;47.982;11.516;2023-07-30T02:21:35;93918.34;;;17.53;81.53
71107;BME280;58763;47.982;11.516;2023-07-30T02:24:02;93918.03;;;17.55;81.34
71107;BME280;58763;47.982;11.516;2023-07-30T02:26:28;93912.56;;;17.55;80.79
71107;BME280;58763;47.982;11.516;2023-07-30T02:28:53;93919.06;;;17.62;80.67
71107;BME280;58763;47.982;11.516;2023-07-30T02:31:19;93920.69;;;17.63;80.53
71107;BME280;58763;47.982;11.516;2023-07-30T02:33:45;93915.19;;;17.63;80.04
71107;BME280;58763;47.982;11.516;2023-07-30T02:36:10;93922.41;;;17.68;80.16
71107;BME280;58763;47.982;11.516;2023-07-30T02:38:37;93910.91;;;17.74;79.95
71107;BME280;58763;47.982;11.516;2023-07-30T02:41:03;93913.78;;;17.78;79.51
71107;BME280;58763;47.982;11.516;2023-07-30T02:43:29;93902.84;;;17.78;79.44
71107;BME280;58763;47.982;11.516;2023-07-30T02:45:54;93912.84;;;17.74;79.57
71107;BME280;58763;47.982;11.516;2023-07-30T02:48:20;93901.84;;;17.82;79.19
71107;BME280;58763;47.982;11.516;2023-07-30T02:50:45;93902.84;;;17.78;79.22
71107;BME280;58763;47.982;11.516;2023-07-30T02:53:11;93904.06;;;17.68;79.34
71107;BME280;58763;47.982;11.516;2023-07-30T02:55:36;93907.13;;;17.67;79.72
71107;BME280;58763;47.982;11.516;2023-07-30T02:58:02;93892.53;;;17.63;80.13
71107;BME280;58763;47.982;11.516;2023-07-30T03:00:27;93902.66;;;17.62;80.11
71107;BME280;58763;47.982;11.516;2023-07-30T03:02:53;93901.66;;;17.67;79.92
71107;BME280;58763;47.982;11.516;2023-07-30T03:05:18;93902.78;;;17.66;80.10
71107;BME280;58763;47.982;11.516;2023-07-30T03:07:44;93905.44;;;17.74;79.91
71107;BME280;58763;47.982;11.516;2023-07-30T03:10:10;93908.84;;;17.71;80.13
71107;BME280;58763;47.982;11.516;2023-07-30T03:12:35;93914.41;;;17.63;80.16
71107;BME280;58763;47.982;11.516;2023-07-30T03:15:01;93905.63;;;17.57;80.58
71107;BME280;58763;47.982;11.516;2023-07-30T03:17:27;93909.59;;;17.60;80.46
71107;BME280;58763;47.982;11.516;2023-07-30T03:19:52;93911.66;;;17.63;80.79
71107;BME280;58763;47.982;11.516;2023-07-30T03:22:18;93909.66;;;17.72;80.17
71107;BME280;58763;47.982;11.516;2023-07-30T03:24:46;93915.00;;;17.68;80.07
71107;BME280;58763;47.982;11.516;2023-07-30T03:27:12;93917.59;;;17.65;80.12
71107;BME280;58763;47.982;11.516;2023-07-30T03:29:38;93917.75;;;17.68;79.96
71107;BME280;58763;47.982;11.516;2023-07-30T03:32:04;93919.00;;;17.71;79.54
71107;BME280;58763;47.982;11.516;2023-07-30T03:34:29;93915.91;;;17.72;79.87
71107;BME280;58763;47.982;11.516;2023-07-30T03:36:55;93914.66;;;17.70;79.33
71107;BME280;58763;47.982;11.516;2023-07-30T03:39:20;93924.59;;;17.74;79.65
71107;BME280;58763;47.982;11.516;2023-07-30T03:41:46;93909.44;;;17.77;79.50
71107;BME280;58763;47.982;11.516;2023-07-30T03:44:12;93922.72;;;17.87;78.97
71107;BME280;58763;47.982;11.516;2023-07-30T03:46:37;93929.75;;;17.88;79.13
71107;BME280;58763;47.982;11.516;2023-07-30T03:49:03;93924.97;;;17.85;79.10
71107;BME280;58763;47.982;11.516;2023-07-30T03:51:29;93924.53;;;17.95;78.70
71107;BME280;58763;47.982;11.516;2023-07-30T03:53:54;93930.59;;;18.01;78.38
71107;BME280;58763;47.982;11.516;2023-07-30T03:56:20;93937.44;;;17.94;78.44
71107;BME280;58763;47.982;11.516;2023-07-30T03:58:45;93941.66;;;18.04;78.18
71107;BME280;58763;47.982;11.516;2023-07-30T04:01:11;93945.97;;;17.93;78.38
71107;BME280;58763;47.982;11.516;2023-07-30T04:03:36;93939.94;;;18.00;77.99
71107;BME280;58763;47.982;11.516;2023-07-30T04:06:02;93942.09;;;17.94;78.58
71107;BME280;58763;47.982;11.516;2023-07-30T04:08:27;93943.41;;;17.76;79.21
71107;BME280;58763;47.982;11.516;2023-07-30T04:10:53;93942.91;;;17.74;79.52
71107;BME280;58763;47.982;11.516;2023-07-30T04:13:19;93943.72;;;17.74;79.39
71107;BME280;58763;47.982;11.516;2023-07-30T04:15:47;93947.88;;;17.60;80.26
71107;BME280;58763;47.982;11.516;2023-07-30T04:18:14;93951.41;;;17.60;80.34
71107;BME280;58763;47.982;11.516;2023-07-30T04:20:40;93948.81;;;17.64;79.79
71107;BME280;58763;47.982;11.516;2023-07-30T04:23:05;93952.94;;;17.70;79.69
71107;BME280;58763;47.982;11.516;2023-07-30T04:25:31;93948.56;;;17.57;80.44
71107;BME280;58763;47.982;11.516;2023-07-30T04:27:56;93956.81;;;17.69;79.90
71107;BME280;58763;47.982;11.516;2023-07-30T04:30:22;93952.34;;;17.64;79.77
71107;BME280;58763;47.982;11.516;2023-07-30T04:32:47;93958.34;;;17.58;80.03
71107;BME280;58763;47.982;11.516;2023-07-30T04:35:13;93956.31;;;17.55;80.23
71107;BME280;58763;47.982;11.516;2023-07-30T04:37:39;93959.19;;;17.50;80.34
71107;BME280;58763;47.982;11.516;2023-07-30T04:40:04;93966.78;;;17.44;80.54
71107;BME280;58763;47.982;11.516;2023-07-30T04:42:30;93965.78;;;17.49;80.45
71107;BME280;58763;47.982;11.516;2023-07-30T04:44:56;93973.53;;;17.47;80.42
71107;BME280;58763;47.982;11.516;2023-07-30T04:47:21;93967.56;;;17.53;80.13
71107;BME280;58763;47.982;11.516;2023-07-30T04:49:47;93972.88;;;17.50;79.77
71107;BME280;58763;47.982;11.516;2023-07-30T04:52:12;93980.56;;;17.56;79.78
71107;BME280;58763;47.982;11.516;2023-07-30T04:54:38;93981.72;;;17.47;80.03
71107;BME280;58763;47.982;11.516;2023-07-30T04:57:04;93983.53;;;17.43;80.17
71107;BME280;58763;47.982;11.516;2023-07-30T04:59:31;93990.13;;;17.42;80.72
71107;BME280;58763;47.982;11.516;2023-07-30T05:01:59;93979.34;;;17.45;80.67
71107;BME280;58763;47.982;11.516;2023-07-30T05:04:25;93980.91;;;17.55;80.12
71107;BME280;58763;47.982;11.516;2023-07-30T05:06:51;93992.97;;;17.54;79.76
71107;BME280;58763;47.982;11.516;2023-07-30T05:09:16;93991.34;;;17.53;80.18
71107;BME280;58763;47.982;11.516;2023-07-30T05:11:42;93983.28;;;17.56;80.06
71107;BME280;58763;47.982;11.516;2023-07-30T05:14:08;93992.13;;;17.62;79.98
71107;BME280;58763;47.982;11.516;2023-07-30T05:16:33;93995.97;;;17.61;79.92
71107;BME280;58763;47.982;11.516;2023-07-30T05:18:59;93991.31;;;17.61;80.13
71107;BME280;58763;47.982;11.516;2023-07-30T05:21:24;93997.16;;;17.72;79.83
71107;BME280;58763;47.982;11.516;2023-07-30T05:23:50;93998.44;;;17.74;79.98
71107;BME280;58763;47.982;11.516;2023-07-30T05:26:15;94009.63;;;17.81;79.34
71107;BME280;58763;47.982;11.516;2023-07-30T05:28:41;94006.56;;;17.83;78.82
71107;BME280;58763;47.982;11.516;2023-07-30T05:31:07;94008.34;;;17.79;79.23
71107;BME280;58763;47.982;11.516;2023-07-30T05:33:33;94008.63;;;17.86;79.01
71107;BME280;58763;47.982;11.516;2023-07-30T05:35:59;94020.03;;;17.88;78.74
71107;BME280;58763;47.982;11.516;2023-07-30T05:38:24;94016.44;;;17.96;78.41
71107;BME280;58763;47.982;11.516;2023-07-30T05:40:50;94011.06;;;18.00;78.00
71107;BME280;58763;47.982;11.516;2023-07-30T05:43:15;94011.47;;;18.10;78.23
71107;BME280;58763;47.982;11.516;2023-07-30T05:45:41;94007.59;;;18.11;78.09
71107;BME280;58763;47.982;11.516;2023-07-30T05:48:06;94013.31;;;18.18;77.29
71107;BME280;58763;47.982;11.516;2023-07-30T05:50:32;94008.34;;;18.20;77.79
71107;BME280;58763;47.982;11.516;2023-07-30T05:52:58;94010.50;;;18.27;77.01
71107;BME280;58763;47.982;11.516;2023-07-30T05:55:23;94011.84;;;18.21;77.13
71107;BME280;58763;47.982;11.516;2023-07-30T05:57:49;94013.66;;;18.17;77.48
71107;BME280;58763;47.982;11.516;2023-07-30T06:00:15;94016.78;;;18.27;77.65
71107;BME280;58763;47.982;11.516;2023-07-30T06:02:40;94017.25;;;18.29;77.21
71107;BME280;58763;47.982;11.516;2023-07-30T06:05:06;94010.38;;;18.23;77.67
71107;BME280;58763;47.982;11.516;2023-07-30T06:07:32;94009.97;;;18.33;77.44
71107;BME280;58763;47.982;11.516;2023-07-30T06:09:57;94013.16;;;18.35;76.72
71107;BME280;58763;47.982;11.516;2023-07-30T06:12:23;94014.53;;;18.41;76.63
71107;BME280;58763;47.982;11.516;2023-07-30T06:14:49;94012.81;;;18.57;76.40
71107;BME280;58763;47.982;11.516;2023-07-30T06:17:14;94014.16;;;18.63;76.30
71107;BME280;58763;47.982;11.516;2023-07-30T06:19:40;94014.03;;;18.60;76.15
71107;BME280;58763;47.982;11.516;2023-07-30T06:22:05;94014.16;;;18.63;76.59
71107;BME280;58763;47.982;11.516;2023-07-30T06:24:31;94021.25;;;18.77;75.41
71107;BME280;58763;47.982;11.516;2023-07-30T06:26:56;94026.16;;;18.71;75.39
71107;BME280;58763;47.982;11.516;2023-07-30T06:29:22;94020.72;;;18.83;75.40
71107;BME280;58763;47.982;11.516;2023-07-30T06:31:48;94013.72;;;18.86;75.70
71107;BME280;58763;47.982;11.516;2023-07-30T06:34:13;94013.97;;;19.05;74.37
71107;BME280;58763;47.982;11.516;2023-07-30T06:36:40;94006.66;;;19.21;74.05
71107;BME280;58763;47.982;11.516;2023-07-30T06:39:06;94013.09;;;19.25;74.07
71107;BME280;58763;47.982;11.516;2023-07-30T06:41:32;94018.88;;;19.23;73.99
71107;BME280;58763;47.982;11.516;2023-07-30T06:43:57;94022.66;;;19.19;73.83
71107;BME280;58763;47.982;11.516;2023-07-30T06:46:23;94017.84;;;19.28;74.35
71107;BME280;58763;47.982;11.516;2023-07-30T06:48:49;94023.91;;;19.33;73.30
71107;BME280;58763;47.982;11.516;2023-07-30T06:51:14;94024.28;;;19.32;73.23
71107;BME280;58763;47.982;11.516;2023-07-30T06:53:43;94018.69;;;19.41;72.97
71107;BME280;58763;47.982;11.516;2023-07-30T06:56:08;94023.13;;;19.45;72.85
71107;BME280;58763;47.982;11.516;2023-07-30T06:58:34;94015.59;;;19.42;71.89
71107;BME280;58763;47.982;11.516;2023-07-30T07:01:00;94027.81;;;19.57;71.99
71107;BME280;58763;47.982;11.516;2023-07-30T07:03:25;94031.34;;;19.69;71.55
71107;BME280;58763;47.982;11.516;2023-07-30T07:05:55;94025.59;;;19.74;70.45
71107;BME280;58763;47.982;11.516;2023-07-30T07:08:22;94025.16;;;19.72;71.50
71107;BME280;58763;47.982;11.516;2023-07-30T07:10:48;94032.47;;;19.80;70.31
71107;BME280;58763;47.982;11.516;2023-07-30T07:13:13;94028.53;;;19.93;71.45
71107;BME280;58763;47.982;11.516;2023-07-30T07:15:42;94025.25;;;19.88;69.53
71107;BME280;58763;47.982;11.516;2023-07-30T07:18:08;94026.13;;;19.92;69.92
71107;BME280;58763;47.982;11.516;2023-07-30T07:20:33;94030.66;;;20.00;70.21
71107;BME280;58763;47.982;11.516;2023-07-30T07:22:59;94030.31;;;20.14;68.93
71107;BME280;58763;47.982;11.516;2023-07-30T07:25:24;94038.28;;;20.19;68.13
71107;BME280;58763;47.982;11.516;2023-07-30T07:27:50;94037.50;;;20.30;67.76
71107;BME280;58763;47.982;11.516;2023-07-30T07:30:16;94037.94;;;20.20;66.63
71107;BME280;58763;47.982;11.516;2023-07-30T07:32:41;94037.13;;;20.20;67.07
71107;BME280;58763;47.982;11.516;2023-07-30T07:35:07;94038.06;;;20.24;68.04
71107;BME280;58763;47.982;11.516;2023-07-30T07:37:33;94039.44;;;20.18;66.78
71107;BME280;58763;47.982;11.516;2023-07-30T07:39:59;94039.50;;;20.33;68.65
71107;BME280;58763;47.982;11.516;2023-07-30T07:42:24;94033.88;;;20.42;67.85
71107;BME280;58763;47.982;11.516;2023-07-30T07:44:50;94042.78;;;20.51;67.62
71107;BME280;58763;47.982;11.516;2023-07-30T07:47:15;94044.91;;;20.57;66.51
71107;BME280;58763;47.982;11.516;2023-07-30T07:49:41;94033.31;;;20.64;66.30
71107;BME280;58763;47.982;11.516;2023-07-30T07:52:07;94048.97;;;20.63;65.62
71107;BME280;58763;47.982;11.516;2023-07-30T07:54:34;94036.47;;;20.50;65.69
71107;BME280;58763;47.982;11.516;2023-07-30T07:56:59;94053.22;;;20.61;66.55
71107;BME280;58763;47.982;11.516;2023-07-30T07:59:25;94054.16;;;20.65;65.96
71107;BME280;58763;47.982;11.516;2023-07-30T08:01:50;94054.34;;;20.72;64.27
71107;BME280;58763;47.982;11.516;2023-07-30T08:04:17;94049.22;;;20.86;64.52
71107;BME280;58763;47.982;11.516;2023-07-30T08:06:43;94048.38;;;21.13;64.96
71107;BME280;58763;47.982;11.516;2023-07-30T08:09:09;94052.38;;;21.16;64.11
71107;BME280;58763;47.982;11.516;2023-07-30T08:11:35;94048.81;;;21.15;63.88
71107;BME280;58763;47.982;11.516;2023-07-30T08:14:00;94049.44;;;21.09;62.59
71107;BME280;58763;47.982;11.516;2023-07-30T08:16:26;94060.19;;;21.14;62.70
71107;BME280;58763;47.982;11.516;2023-07-30T08:18:52;94047.50;;;21.09;61.50
71107;BME280;58763;47.982;11.516;2023-07-30T08:21:17;94047.75;;;21.20;61.19
71107;BME280;58763;47.982;11.516;2023-07-30T08:23:46;94044.03;;;21.28;61.45
71107;BME280;58763;47.982;11.516;2023-07-30T08:26:11;94045.44;;;21.22;62.33
71107;BME280;58763;47.982;11.516;2023-07-30T08:28:37;94054.63;;;20.98;61.51
71107;BME280;58763;47.982;11.516;2023-07-30T08:31:03;94047.81;;;20.92;62.32
71107;BME280;58763;47.982;11.516;2023-07-30T08:33:29;94041.19;;;21.09;63.33
71107;BME280;58763;47.982;11.516;2023-07-30T08:35:55;94044.81;;;21.28;63.59
71107;BME280;58763;47.982;11.516;2023-07-30T08:38:21;94046.94;;;21.19;61.31
71107;BME280;58763;47.982;11.516;2023-07-30T08:40:47;94043.56;;;21.10;61.47
71107;BME280;58763;47.982;11.516;2023-07-30T08:43:13;94049.34;;;21.21;62.18
71107;BME280;58763;47.982;11.516;2023-07-30T08:45:39;94046.06;;;21.31;61.75
71107;BME280;58763;47.982;11.516;2023-07-30T08:48:04;94050.31;;;21.44;61.30
71107;BME280;58763;47.982;11.516;2023-07-30T08:50:30;94048.25;;;21.57;60.91
71107;BME280;58763;47.982;11.516;2023-07-30T08:52:57;94042.00;;;21.75;60.31
71107;BME280;58763;47.982;11.516;2023-07-30T08:55:26;94033.00;;;21.94;58.41
71107;BME280;58763;47.982;11.516;2023-07-30T08:57:54;94026.44;;;22.18;57.52
71107;BME280;58763;47.982;11.516;2023-07-30T09:00:24;94027.84;;;22.46;58.73
71107;BME280;58763;47.982;11.516;2023-07-30T09:02:55;94021.66;;;22.34;57.41
71107;BME280;58763;47.982;11.516;2023-07-30T09:05:21;94018.75;;;22.27;56.95
71107;BME280;58763;47.982;11.516;2023-07-30T09:07:48;94021.69;;;22.15;56.15
71107;BME280;58763;47.982;11.516;2023-07-30T09:10:14;94012.69;;;22.37;57.85
71107;BME280;58763;47.982;11.516;2023-07-30T09:12:40;94013.09;;;22.58;57.25
71107;BME280;58763;47.982;11.516;2023-07-30T09:15:07;94020.56;;;22.38;56.13
71107;BME280;58763;47.982;11.516;2023-07-30T09:17:34;94013.91;;;22.39;56.44
71107;BME280;58763;47.982;11.516;2023-07-30T09:20:01;94005.78;;;22.27;55.56
71107;BME280;58763;47.982;11.516;2023-07-30T09:22:28;94005.50;;;22.32;57.44
71107;BME280;58763;47.982;11.516;2023-07-30T09:24:55;94000.69;;;22.48;55.42
71107;BME280;58763;47.982;11.516;2023-07-30T09:27:23;94000.03;;;22.74;55.96
71107;BME280;58763;47.982;11.516;2023-07-30T09:30:02;94000.97;;;23.04;54.27
71107;BME280;58763;47.982;11.516;2023-07-30T09:32:32;94001.75;;;23.27;54.37
71107;BME280;58763;47.982;11.516;2023-07-30T09:35:09;94002.50;;;23.47;53.48
71107;BME280;58763;47.982;11.516;2023-07-30T09:37:39;94007.19;;;23.43;52.11
71107;BME280;58763;47.982;11.516;2023-07-30T09:40:07;94007.13;;;23.40;53.81
71107;BME280;58763;47.982;11.516;2023-07-30T09:42:34;94012.47;;;23.55;52.43
71107;BME280;58763;47.982;11.516;2023-07-30T09:45:03;93997.53;;;23.11;51.81
71107;BME280;58763;47.982;11.516;2023-07-30T09:47:30;94000.72;;;23.13;52.62
71107;BME280;58763;47.982;11.516;2023-07-30T09:49:56;94010.41;;;23.26;54.32
71107;BME280;58763;47.982;11.516;2023-07-30T09:52:22;94002.50;;;22.79;53.36
71107;BME280;58763;47.982;11.516;2023-07-30T09:54:49;93994.34;;;23.09;54.75
71107;BME280;58763;47.982;11.516;2023-07-30T09:57:17;93994.78;;;23.33;52.32
71107;BME280;58763;47.982;11.516;2023-07-30T09:59:43;93994.34;;;23.54;52.33
71107;BME280;58763;47.982;11.516;2023-07-30T10:02:10;93991.50;;;23.51;51.76
71107;BME280;58763;47.982;11.516;2023-07-30T10:04:41;94000.81;;;23.65;52.34
71107;BME280;58763;47.982;11.516;2023-07-30T10:07:15;93990.63;;;23.69;51.63
71107;BME280;58763;47.982;11.516;2023-07-30T10:09:43;93992.22;;;23.70;50.50
71107;BME280;58763;47.982;11.516;2023-07-30T10:12:16;93998.16;;;23.98;49.19
71107;BME280;58763;47.982;11.516;2023-07-30T10:14:43;94001.03;;;23.79;48.96
71107;BME280;58763;47.982;11.516;2023-07-30T10:17:11;94002.75;;;23.61;50.03
71107;BME280;58763;47.982;11.516;2023-07-30T10:19:36;94008.50;;;23.53;48.70
71107;BME280;58763;47.982;11.516;2023-07-30T10:24:55;94000.91;;;23.23;49.91
71107;BME280;58763;47.982;11.516;2023-07-30T10:27:49;94009.63;;;23.25;50.40
71107;BME280;58763;47.982;11.516;2023-07-30T10:30:15;93990.88;;;23.34;50.74
71107;BME280;58763;47.982;11.516;2023-07-30T10:35:41;93999.53;;;23.85;47.94
71107;BME280;58763;47.982;11.516;2023-07-30T10:38:22;94003.09;;;23.86;46.89
71107;BME280;58763;47.982;11.516;2023-07-30T10:41:06;94007.91;;;23.40;46.36
71107;BME280;58763;47.982;11.516;2023-07-30T10:43:42;94007.28;;;23.50;47.97
71107;BME280;58763;47.982;11.516;2023-07-30T10:46:10;94002.06;;;23.71;47.02
71107;BME280;58763;47.982;11.516;2023-07-30T10:48:37;93991.00;;;23.97;47.68
71107;BME280;58763;47.982;11.516;2023-07-30T10:51:12;94002.34;;;24.15;46.92
71107;BME280;58763;47.982;11.516;2023-07-30T10:53:45;94013.72;;;24.10;45.92
71107;BME280;58763;47.982;11.516;2023-07-30T10:56:12;93998.47;;;23.93;45.76
71107;BME280;58763;47.982;11.516;2023-07-30T10:58:39;93991.53;;;23.77;47.31
71107;BME280;58763;47.982;11.516;2023-07-30T11:01:06;93992.31;;;23.51;46.58
71107;BME280;58763;47.982;11.516;2023-07-30T11:03:33;93991.13;;;23.78;46.57
71107;BME280;58763;47.982;11.516;2023-07-30T11:05:59;93987.94;;;24.02;45.55
71107;BME280;58763;47.982;11.516;2023-07-30T11:08:39;93984.59;;;23.90;45.42
71107;BME280;58763;47.982;11.516;2023-07-30T11:11:06;93985.06;;;24.22;46.88
71107;BME280;58763;47.982;11.516;2023-07-30T11:13:40;93998.47;;;24.20;46.11
71107;BME280;58763;47.982;11.516;2023-07-30T11:16:07;93990.72;;;24.32;45.87
71107;BME280;58763;47.982;11.516;2023-07-30T11:18:34;93999.28;;;24.24;47.87
71107;BME280;58763;47.982;11.516;2023-07-30T11:21:07;94002.47;;;23.99;46.00
71107;BME280;58763;47.982;11.516;2023-07-30T11:23:35;93988.44;;;23.82;47.21
71107;BME280;58763;47.982;11.516;2023-07-30T11:26:03;94001.75;;;23.76;49.06
71107;BME280;58763;47.982;11.516;2023-07-30T11:28:36;94006.31;;;23.62;47.37
71107;BME280;58763;47.982;11.516;2023-07-30T11:31:05;94008.88;;;23.51;48.51
71107;BME280;58763;47.982;11.516;2023-07-30T11:33:31;93996.13;;;23.69;48.63
71107;BME280;58763;47.982;11.516;2023-07-30T11:36:00;93997.50;;;24.09;49.59
71107;BME280;58763;47.982;11.516;2023-07-30T11:38:26;94002.88;;;24.57;47.13
71107;BME280;58763;47.982;11.516;2023-07-30T11:40:53;94000.69;;;24.73;46.17
71107;BME280;58763;47.982;11.516;2023-07-30T11:43:23;94002.81;;;24.54;46.70
71107;BME280;58763;47.982;11.516;2023-07-30T11:46:02;94005.63;;;24.24;46.66
71107;BME280;58763;47.982;11.516;2023-07-30T11:48:30;94006.66;;;24.13;45.87
71107;BME280;58763;47.982;11.516;2023-07-30T11:50:56;93991.38;;;23.66;47.44
71107;BME280;58763;47.982;11.516;2023-07-30T11:53:21;93999.47;;;23.56;47.49
71107;BME280;58763;47.982;11.516;2023-07-30T11:55:47;94012.75;;;23.24;47.03
71107;BME280;58763;47.982;11.516;2023-07-30T11:58:13;94000.72;;;23.13;47.62
71107;BME280;58763;47.982;11.516;2023-07-30T12:00:40;94010.78;;;23.02;47.63
71107;BME280;58763;47.982;11.516;2023-07-30T12:03:10;94009.31;;;23.08;48.16
71107;BME280;58763;47.982;11.516;2023-07-30T12:05:37;94007.88;;;23.63;48.20
71107;BME280;58763;47.982;11.516;2023-07-30T12:08:04;93997.66;;;23.93;47.13
71107;BME280;58763;47.982;11.516;2023-07-30T12:10:46;94002.38;;;24.19;46.78
71107;BME280;58763;47.982;11.516;2023-07-30T12:13:17;93998.91;;;24.55;46.43
71107;BME280;58763;47.982;11.516;2023-07-30T12:15:53;94000.53;;;24.63;45.08
71107;BME280;58763;47.982;11.516;2023-07-30T12:18:19;94004.50;;;24.29;46.67
71107;BME280;58763;47.982;11.516;2023-07-30T12:20:48;94003.97;;;24.20;46.11
71107;BME280;58763;47.982;11.516;2023-07-30T12:23:16;93994.50;;;24.21;46.75
71107;BME280;58763;47.982;11.516;2023-07-30T12:25:41;94008.94;;;24.07;46.16
71107;BME280;58763;47.982;11.516;2023-07-30T12:28:07;94008.50;;;23.79;45.88
71107;BME280;58763;47.982;11.516;2023-07-30T12:30:33;94009.25;;;23.50;44.98
71107;BME280;58763;47.982;11.516;2023-07-30T12:32:58;94014.25;;;22.99;44.94
71107;BME280;58763;47.982;11.516;2023-07-30T12:35:24;94014.47;;;22.87;46.47
71107;BME280;58763;47.982;11.516;2023-07-30T12:37:50;94014.75;;;22.82;46.49
71107;BME280;58763;47.982;11.516;2023-07-30T12:40:16;94021.50;;;22.84;46.73
71107;BME280;58763;47.982;11.516;2023-07-30T12:42:42;94018.44;;;22.89;46.70
71107;BME280;58763;47.982;11.516;2023-07-30T12:45:07;94020.56;;;22.77;46.92
71107;BME280;58763;47.982;11.516;2023-07-30T12:47:33;94021.94;;;23.09;47.68
71107;BME280;58763;47.982;11.516;2023-07-30T12:50:01;94016.19;;;23.40;46.63
71107;BME280;58763;47.982;11.516;2023-07-30T12:52:27;94006.22;;;23.58;46.32
71107;BME280;58763;47.982;11.516;2023-07-30T12:54:52;94016.84;;;23.33;45.87